Iacsonvilla, FL (32257)

08:45 PM EST die 17o January, anno 2017 (GMT -0500)
Spanish Wells | | Change Station

Elev 26 ft 30.21 °N, 81.61 °W | Updated 23 seconds ago

Partialiter Nubila
Partialiter Nubila
63.0 °F
Feels Like 63.0 °F
N
0.0
Ventus Variabilis Ventus from Auster

Hodie
High -- | Low -- °F
--% Chance of Precip.
Yesterday
High -- | Low -- °F
Precip. -- in
Pressio 30.23 in
Visibilitas 10.0 milia passuum
Clouds Few 7000 ft
Plerumque Nubila 25000 ft
Frigus in quo Ros apparet 60 °F
Umor 90%
Rainfall 0.00 in
Snow Depth Not available.
7:22 AM 5:50 PM
Waning Gibbous, 68% visible
METAR KNIP 180053Z 10004KT 10SM FEW070 BKN250 21/17 A3024 RMK AO2 SLP236 T02060167 $
Pressio 30.23 in
Visibilitas 10.0 milia passuum
Clouds Few 7000 ft
Plerumque Nubila 25000 ft
Frigus in quo Ros apparet 60 °F
Umor 90%
Rainfall 0.00 in
Snow Depth Not available.
7:22 AM 5:50 PM
Waning Gibbous, 68% visible
METAR KNIP 180053Z 10004KT 10SM FEW070 BKN250 21/17 A3024 RMK AO2 SLP236 T02060167 $

Get Your Daily Forecast Email!

Thanks for signing up!

Be on the lookout for a verification email in your inbox.

You'll start receiving the daily forecast at 8 AM.

×

10-Day Weather Forecast

Almanac

Astronomy

Jan. 17, 2017 Rise Set
Actual Time
Civil Twilight
Nautical Twilight
Astronomical Twilight
Moon
Length Of Visible Light
Length of Day
Tomorrow will be .
, % of the Moon is Illuminated

Today's Extremes

State Highs State Lows

Community

WunderPhotos

Upload Photos

1,962,540 photos uploaded!

WunderBlog® & News

Nearby

Air Quality

  Air Quality AQ Index Pollutant
Not available.

Snow Depth

Station Depth Elevation

Earthquake Activity

City Distance Mag. Time & Date
Minimum magnitude displayed is 2.5.

Coastal Water Temperatures

Locus Calor

Stations

Nearby Weather Stations

Station Location Temp Frigus Venti Frigus in quo Ros apparet Umor Ventus Precip. Elev Renovata Type
                   

Watches & Warnings

There are currently no watches in effect.